createdAt,value
2023-02-09T00:01:26.108Z,24.20
2023-02-09T00:03:53.589Z,21.45
2023-02-09T00:06:22.694Z,26.27
2023-02-09T00:08:50.195Z,26.05
2023-02-09T00:11:47.881Z,26.27
2023-02-09T00:14:16.472Z,26.42
2023-02-09T00:16:43.916Z,28.13
2023-02-09T00:19:11.904Z,28.48
2023-02-09T00:21:39.344Z,29.52
2023-02-09T00:24:07.011Z,27.40
2023-02-09T00:26:34.449Z,29.00
2023-02-09T00:29:01.577Z,28.17
2023-02-09T00:31:28.675Z,29.30
2023-02-09T00:33:55.731Z,31.55
2023-02-09T00:36:22.791Z,27.80
2023-02-09T00:38:50.097Z,31.00
2023-02-09T00:41:17.419Z,29.85
2023-02-09T00:43:44.452Z,29.33
2023-02-09T00:46:11.556Z,32.03
2023-02-09T00:48:38.674Z,35.83
2023-02-09T00:51:05.784Z,34.00
2023-02-09T00:53:32.801Z,35.60
2023-02-09T00:55:59.948Z,34.83
2023-02-09T00:58:27.020Z,33.20
2023-02-09T01:00:54.138Z,31.27
2023-02-09T01:03:21.348Z,29.98
2023-02-09T01:05:48.385Z,29.95
2023-02-09T01:08:15.434Z,33.10
2023-02-09T01:10:42.479Z,26.75
2023-02-09T01:13:09.536Z,29.90
2023-02-09T01:15:39.328Z,31.77
2023-02-09T01:18:07.538Z,31.17
2023-02-09T01:20:34.904Z,29.95
2023-02-09T01:23:01.976Z,29.42
2023-02-09T01:25:28.988Z,29.80
2023-02-09T01:27:56.021Z,29.63
2023-02-09T01:30:23.079Z,33.15
2023-02-09T01:32:50.210Z,28.35
2023-02-09T01:35:17.854Z,28.17
2023-02-09T01:37:44.866Z,28.63
2023-02-09T01:40:12.179Z,26.73
2023-02-09T01:42:39.521Z,28.00
2023-02-09T01:45:09.316Z,30.30
2023-02-09T01:47:42.432Z,27.48
2023-02-09T01:50:09.618Z,29.63
2023-02-09T01:52:36.817Z,34.17
2023-02-09T01:55:06.984Z,33.55
2023-02-09T01:57:39.230Z,30.63
2023-02-09T02:00:08.557Z,34.50
2023-02-09T02:02:35.732Z,27.80
2023-02-09T02:05:03.238Z,33.75
2023-02-09T02:07:33.560Z,31.15
2023-02-09T02:10:00.750Z,31.98
2023-02-09T02:12:27.819Z,28.02
2023-02-09T02:14:54.848Z,28.52
2023-02-09T02:17:33.833Z,31.80
2023-02-09T02:20:10.093Z,30.88
2023-02-09T02:22:49.281Z,27.95
2023-02-09T02:25:28.323Z,30.98
2023-02-09T02:28:18.364Z,30.88
2023-02-09T02:30:51.224Z,30.00
2023-02-09T02:33:26.632Z,29.30
2023-02-09T02:36:02.314Z,29.17
2023-02-09T02:38:35.472Z,31.20
2023-02-09T02:41:05.603Z,32.08
2023-02-09T02:43:41.350Z,30.10
2023-02-09T02:46:13.595Z,27.17
2023-02-09T02:48:43.056Z,25.95
2023-02-09T02:51:10.461Z,29.85
2023-02-09T02:53:38.287Z,27.95
2023-02-09T02:56:11.090Z,28.23
2023-02-09T02:58:39.761Z,32.85
2023-02-09T03:01:09.144Z,28.13
2023-02-09T03:03:37.468Z,29.20
2023-02-09T03:06:05.851Z,33.42
2023-02-09T03:08:46.246Z,30.92
2023-02-09T03:11:13.330Z,30.65
2023-02-09T03:13:43.371Z,28.42
2023-02-09T03:16:19.135Z,33.50
2023-02-09T03:19:01.448Z,33.90
2023-02-09T03:21:34.295Z,34.00
2023-02-09T03:24:04.037Z,35.92
2023-02-09T03:26:39.669Z,42.15
2023-02-09T03:29:07.328Z,38.83
2023-02-09T03:31:34.407Z,35.83
2023-02-09T03:34:01.775Z,38.72
2023-02-09T03:36:32.782Z,34.60
2023-02-09T03:39:00.039Z,32.70
2023-02-09T03:41:27.133Z,34.50
2023-02-09T03:44:12.962Z,36.08
2023-02-09T03:46:40.108Z,32.80
2023-02-09T03:49:07.144Z,39.13
2023-02-09T03:51:34.177Z,38.40
2023-02-09T03:54:01.178Z,37.55
2023-02-09T03:56:28.225Z,38.40
2023-02-09T03:58:55.291Z,40.15
2023-02-09T04:01:22.296Z,37.80
2023-02-09T04:03:49.408Z,40.63
2023-02-09T04:06:16.432Z,45.45
2023-02-09T04:08:43.439Z,43.92
2023-02-09T04:11:10.546Z,42.33
2023-02-09T04:13:37.595Z,42.17
2023-02-09T04:16:04.784Z,41.53
2023-02-09T04:18:31.864Z,36.92
2023-02-09T04:20:59.973Z,41.17
2023-02-09T04:23:27.028Z,41.20
2023-02-09T04:25:54.102Z,41.90
2023-02-09T04:28:21.199Z,40.47
2023-02-09T04:30:52.766Z,44.88
2023-02-09T04:33:19.922Z,41.42
2023-02-09T04:35:48.802Z,40.50
2023-02-09T04:38:16.827Z,52.50
2023-02-09T04:40:44.226Z,41.17
2023-02-09T04:43:11.439Z,41.70
2023-02-09T04:45:39.219Z,45.00
2023-02-09T04:48:06.707Z,41.47
2023-02-09T04:50:33.949Z,47.00
2023-02-09T04:53:00.986Z,39.63
2023-02-09T04:55:28.142Z,40.33
2023-02-09T04:58:15.209Z,44.30
2023-02-09T05:00:43.648Z,48.78
2023-02-09T05:03:10.885Z,44.25
2023-02-09T05:05:40.622Z,46.17
2023-02-09T05:08:08.094Z,44.50
2023-02-09T05:10:35.687Z,40.10
2023-02-09T05:13:02.779Z,48.90
2023-02-09T05:15:29.824Z,45.15
2023-02-09T05:17:56.840Z,46.85
2023-02-09T05:20:23.902Z,40.35
2023-02-09T05:22:50.906Z,43.58
2023-02-09T05:25:17.924Z,39.45
2023-02-09T05:27:44.927Z,42.53
2023-02-09T05:30:12.302Z,44.17
2023-02-09T05:32:39.294Z,46.28
2023-02-09T05:35:08.320Z,42.90
2023-02-09T05:37:35.634Z,43.13
2023-02-09T05:40:02.743Z,43.35
2023-02-09T05:42:29.768Z,45.63
2023-02-09T05:44:56.787Z,44.00
2023-02-09T05:47:25.086Z,44.20
2023-02-09T05:49:52.701Z,44.53
2023-02-09T05:52:20.585Z,48.22
2023-02-09T05:54:48.642Z,44.45
2023-02-09T05:57:16.368Z,49.65
2023-02-09T05:59:43.479Z,46.55
2023-02-09T06:02:10.929Z,40.97
2023-02-09T06:04:37.965Z,47.97
2023-02-09T06:07:05.161Z,47.45
2023-02-09T06:09:32.163Z,45.53
2023-02-09T06:11:59.212Z,43.80
2023-02-09T06:14:26.314Z,42.00
2023-02-09T06:16:53.353Z,48.65
2023-02-09T06:19:21.730Z,49.83
2023-02-09T06:21:48.861Z,44.90
2023-02-09T06:24:17.024Z,41.85
2023-02-09T06:26:44.066Z,47.70
2023-02-09T06:29:11.094Z,48.40
2023-02-09T06:31:38.385Z,45.17
2023-02-09T06:34:05.797Z,48.00
2023-02-09T06:36:32.917Z,44.28
2023-02-09T06:39:00.123Z,46.47
2023-02-09T06:41:27.216Z,41.78
2023-02-09T06:43:54.269Z,48.90
2023-02-09T06:46:21.502Z,40.55
2023-02-09T06:48:48.629Z,41.08
2023-02-09T06:51:17.018Z,42.83
2023-02-09T06:53:44.473Z,40.45
2023-02-09T06:56:12.103Z,43.20
2023-02-09T06:58:41.525Z,39.47
2023-02-09T07:01:12.635Z,38.58
2023-02-09T07:03:39.911Z,38.55
2023-02-09T07:06:08.092Z,38.55
2023-02-09T07:08:35.805Z,35.15
2023-02-09T07:11:07.135Z,35.92
2023-02-09T07:13:34.590Z,35.58
2023-02-09T07:16:02.459Z,41.08
2023-02-09T07:18:29.900Z,37.88
2023-02-09T07:21:01.350Z,36.03
2023-02-09T07:23:28.758Z,36.65
2023-02-09T07:25:55.881Z,40.38
2023-02-09T07:28:23.495Z,39.22
2023-02-09T07:30:52.107Z,38.35
2023-02-09T07:33:19.979Z,37.80
2023-02-09T07:35:47.723Z,43.15
2023-02-09T07:38:15.195Z,38.67
2023-02-09T07:40:46.364Z,35.38
2023-02-09T07:43:14.238Z,36.22
2023-02-09T07:45:41.853Z,33.42
2023-02-09T07:48:10.834Z,33.92
2023-02-09T07:50:38.227Z,35.28
2023-02-09T07:53:05.270Z,31.60
2023-02-09T07:55:32.352Z,31.33
2023-02-09T07:57:59.417Z,28.85
2023-02-09T08:00:26.510Z,31.52
2023-02-09T08:02:53.639Z,27.73
2023-02-09T08:05:27.474Z,31.40
2023-02-09T08:07:56.001Z,27.05
2023-02-09T08:10:23.274Z,27.73
2023-02-09T08:12:59.689Z,35.00
2023-02-09T08:15:28.762Z,26.83
2023-02-09T08:17:57.252Z,31.20
2023-02-09T08:20:26.276Z,23.98
2023-02-09T08:22:55.488Z,26.88
2023-02-09T08:25:24.406Z,27.95
2023-02-09T08:27:52.145Z,28.02
2023-02-09T08:30:19.789Z,24.40
2023-02-09T08:32:46.857Z,26.48
2023-02-09T08:35:14.201Z,26.23
2023-02-09T08:37:41.292Z,30.05
2023-02-09T08:40:08.504Z,28.08
2023-02-09T08:42:35.568Z,31.42
2023-02-09T08:45:02.666Z,28.13
2023-02-09T08:47:29.717Z,26.92
2023-02-09T08:49:58.014Z,31.75
2023-02-09T08:52:25.269Z,25.77
2023-02-09T08:54:52.523Z,24.30
2023-02-09T08:57:19.589Z,29.75
2023-02-09T08:59:46.759Z,27.05
2023-02-09T09:02:13.896Z,27.40
2023-02-09T09:04:40.966Z,28.35
2023-02-09T09:07:08.023Z,23.15
2023-02-09T09:09:35.057Z,27.20
2023-02-09T09:12:02.185Z,25.27
2023-02-09T09:14:29.354Z,23.45
2023-02-09T09:16:58.227Z,28.15
2023-02-09T09:19:25.869Z,27.10
2023-02-09T09:21:53.185Z,25.25
2023-02-09T09:24:21.082Z,24.02
2023-02-09T09:26:48.119Z,31.63
2023-02-09T09:29:15.162Z,23.63
2023-02-09T09:31:42.254Z,24.85
2023-02-09T09:34:09.329Z,23.38
2023-02-09T09:36:36.460Z,26.92
2023-02-09T09:39:03.700Z,26.25
2023-02-09T09:41:32.802Z,24.73
2023-02-09T09:44:00.975Z,24.05
2023-02-09T09:46:34.699Z,23.83
2023-02-09T09:51:37.811Z,26.88
2023-02-09T09:54:06.718Z,25.00
2023-02-09T09:56:34.060Z,23.20
2023-02-09T09:59:01.850Z,34.60
2023-02-09T10:01:31.774Z,22.38
2023-02-09T10:04:03.506Z,28.45
2023-02-09T10:06:33.779Z,22.67
2023-02-09T10:09:10.068Z,20.73
2023-02-09T10:11:39.691Z,24.38
2023-02-09T10:14:06.717Z,21.83
2023-02-09T10:16:35.010Z,22.02
2023-02-09T10:19:03.354Z,24.20
2023-02-09T10:21:32.285Z,20.00
2023-02-09T10:24:02.337Z,23.58
2023-02-09T10:26:31.686Z,22.95
2023-02-09T10:29:00.209Z,20.70
2023-02-09T10:31:33.508Z,22.20
2023-02-09T10:34:09.511Z,21.40
2023-02-09T10:36:37.522Z,20.38
2023-02-09T10:39:06.732Z,26.13
2023-02-09T10:41:35.039Z,20.65
2023-02-09T10:44:06.274Z,22.98
2023-02-09T10:46:33.784Z,28.77
2023-02-09T10:49:00.852Z,20.15
2023-02-09T10:51:33.531Z,20.63
2023-02-09T10:54:03.144Z,21.30
2023-02-09T10:56:36.076Z,23.35
2023-02-09T10:59:04.921Z,21.27
2023-02-09T11:01:33.458Z,21.27
2023-02-09T11:04:26.939Z,22.13
2023-02-09T11:07:01.836Z,21.60
2023-02-09T11:09:31.438Z,22.05
2023-02-09T11:11:58.483Z,18.95
2023-02-09T11:14:26.071Z,22.27
2023-02-09T11:16:55.895Z,19.42
2023-02-09T11:19:27.882Z,22.40
2023-02-09T11:22:07.463Z,20.85
2023-02-09T11:24:53.285Z,23.63
2023-02-09T11:27:21.133Z,20.27
2023-02-09T11:30:07.425Z,17.70
2023-02-09T11:32:54.767Z,19.98
2023-02-09T11:35:24.718Z,20.27
2023-02-09T11:37:55.812Z,20.10
2023-02-09T11:40:22.844Z,20.38
2023-02-09T11:42:53.375Z,19.35
2023-02-09T11:45:23.938Z,17.67
2023-02-09T11:48:03.446Z,17.38
2023-02-09T11:50:49.456Z,20.92
2023-02-09T11:53:21.858Z,19.70
2023-02-09T11:56:03.430Z,22.25
2023-02-09T11:58:53.451Z,20.15
2023-02-09T12:01:26.622Z,19.60
2023-02-09T12:04:10.663Z,21.67
2023-02-09T12:06:40.498Z,20.73
2023-02-09T12:09:12.558Z,24.13
2023-02-09T12:11:45.525Z,22.33
2023-02-09T12:14:23.167Z,20.23
2023-02-09T12:16:54.282Z,21.63
2023-02-09T12:19:41.561Z,22.42
2023-02-09T12:22:43.488Z,24.17
2023-02-09T12:25:14.013Z,22.35
2023-02-09T12:27:42.170Z,22.65
2023-02-09T12:30:27.740Z,26.00
2023-02-09T12:33:11.276Z,23.48
2023-02-09T12:35:39.671Z,14.85
2023-02-09T12:38:08.364Z,25.50
2023-02-09T12:40:36.369Z,25.92
2023-02-09T12:43:09.968Z,25.02
2023-02-09T12:45:38.920Z,24.27
2023-02-09T12:48:08.753Z,24.52
2023-02-09T12:50:46.013Z,21.23
2023-02-09T12:53:22.512Z,22.08
2023-02-09T12:56:10.541Z,22.05
2023-02-09T12:58:57.859Z,23.52
2023-02-09T13:01:44.814Z,21.17
2023-02-09T13:04:13.025Z,22.52
2023-02-09T13:06:44.762Z,22.40
2023-02-09T13:09:16.801Z,26.30
2023-02-09T13:11:49.672Z,21.02
2023-02-09T13:14:17.375Z,22.20
2023-02-09T13:17:03.003Z,23.52
2023-02-09T13:19:48.919Z,23.95
2023-02-09T13:22:25.881Z,21.40
2023-02-09T13:24:55.664Z,20.70
2023-02-09T13:27:24.326Z,23.23
2023-02-09T13:29:53.355Z,20.60
2023-02-09T13:32:39.299Z,23.58
2023-02-09T13:35:28.009Z,22.38
2023-02-09T13:37:56.150Z,22.10
2023-02-09T13:40:28.516Z,19.67
2023-02-09T13:43:01.101Z,21.65
2023-02-09T13:45:28.375Z,19.13
2023-02-09T13:47:56.106Z,23.60
2023-02-09T13:50:24.757Z,21.17
2023-02-09T13:52:52.284Z,19.10
2023-02-09T13:55:19.439Z,18.30
2023-02-09T13:58:00.460Z,19.33
2023-02-09T14:00:29.409Z,20.17
2023-02-09T14:03:00.840Z,19.33
2023-02-09T14:05:39.990Z,18.50
2023-02-09T14:08:07.735Z,18.55
2023-02-09T14:10:35.630Z,21.75
2023-02-09T14:13:07.640Z,19.15
2023-02-09T14:15:56.274Z,19.48
2023-02-09T14:18:43.114Z,20.15
2023-02-09T14:21:13.432Z,18.42
2023-02-09T14:23:41.110Z,18.52
2023-02-09T14:26:18.238Z,20.90
2023-02-09T14:28:49.177Z,19.17
2023-02-09T14:31:19.257Z,23.23
2023-02-09T14:33:49.963Z,25.10
2023-02-09T14:36:21.847Z,20.13
2023-02-09T14:38:50.375Z,21.00
2023-02-09T14:41:34.370Z,19.88
2023-02-09T14:44:18.251Z,21.75
2023-02-09T14:46:48.390Z,20.65
2023-02-09T14:49:15.868Z,21.55
2023-02-09T14:51:43.361Z,20.27
2023-02-09T14:54:18.435Z,22.30
2023-02-09T14:56:46.043Z,21.75
2023-02-09T14:59:16.549Z,21.85
2023-02-09T15:01:43.701Z,24.25
2023-02-09T15:04:10.843Z,19.85
2023-02-09T15:06:38.236Z,23.50
2023-02-09T15:09:06.065Z,22.52
2023-02-09T15:11:51.984Z,24.20
2023-02-09T15:14:24.233Z,28.33
2023-02-09T15:16:51.583Z,22.85
2023-02-09T15:19:21.056Z,23.27
2023-02-09T15:22:01.873Z,21.55
2023-02-09T15:24:32.504Z,25.42
2023-02-09T15:26:59.554Z,23.85
2023-02-09T15:29:26.591Z,28.30
2023-02-09T15:31:55.172Z,26.48
2023-02-09T15:34:22.192Z,28.63
2023-02-09T15:36:49.331Z,23.48
2023-02-09T15:39:20.248Z,26.52
2023-02-09T15:42:06.014Z,25.30
2023-02-09T15:44:51.855Z,23.08
2023-02-09T15:47:37.730Z,25.85
2023-02-09T15:50:04.873Z,29.48
2023-02-09T15:52:31.949Z,25.20
2023-02-09T15:54:58.999Z,24.42
2023-02-09T15:57:26.163Z,25.67
2023-02-09T15:59:53.312Z,26.17
2023-02-09T16:02:20.433Z,30.85
2023-02-09T16:04:48.953Z,26.35
2023-02-09T16:07:20.888Z,27.90
2023-02-09T16:09:47.984Z,27.42
2023-02-09T16:12:15.068Z,34.55
2023-02-09T16:14:42.107Z,24.77
2023-02-09T16:17:09.135Z,26.13
2023-02-09T16:19:36.201Z,29.20
2023-02-09T16:22:05.297Z,27.33
2023-02-09T16:24:34.928Z,32.13
2023-02-09T16:27:03.155Z,26.92
2023-02-09T16:29:30.210Z,26.27
2023-02-09T16:31:57.269Z,29.73
2023-02-09T16:34:24.301Z,28.20
2023-02-09T16:36:51.383Z,31.85
2023-02-09T16:39:19.584Z,29.92
2023-02-09T16:41:47.295Z,31.88
2023-02-09T16:44:21.773Z,35.85
2023-02-09T16:46:50.542Z,33.95
2023-02-09T16:49:27.240Z,31.17
2023-02-09T16:51:56.182Z,30.77
2023-02-09T16:54:23.281Z,29.70
2023-02-09T16:56:54.657Z,30.85
2023-02-09T16:59:21.846Z,31.08
2023-02-09T17:01:49.348Z,30.75
2023-02-09T17:04:16.437Z,35.90
2023-02-09T17:06:44.887Z,34.97
2023-02-09T17:09:15.291Z,32.85
2023-02-09T17:11:42.495Z,40.72
2023-02-09T17:14:09.782Z,35.10
2023-02-09T17:16:38.816Z,32.17
2023-02-09T17:19:08.362Z,32.53
2023-02-09T17:21:35.627Z,32.30
2023-02-09T17:24:05.017Z,30.63
2023-02-09T17:26:32.115Z,30.25
2023-02-09T17:28:59.104Z,32.08
2023-02-09T17:31:27.677Z,35.78
2023-02-09T17:33:56.668Z,35.47
2023-02-09T17:36:28.621Z,35.33
2023-02-09T17:38:57.887Z,32.50
2023-02-09T17:41:31.141Z,30.17
2023-02-09T17:44:13.786Z,33.47
2023-02-09T17:46:46.594Z,32.83
2023-02-09T17:49:13.626Z,32.38
2023-02-09T17:51:41.776Z,36.10
2023-02-09T17:54:16.180Z,33.50
2023-02-09T17:56:43.254Z,33.38
2023-02-09T17:59:10.705Z,39.40
2023-02-09T18:01:42.534Z,36.83
2023-02-09T18:04:15.842Z,41.45
2023-02-09T18:06:42.849Z,40.80
2023-02-09T18:09:12.163Z,38.25
2023-02-09T18:11:42.189Z,38.53
2023-02-09T18:14:12.398Z,38.53
2023-02-09T18:16:41.126Z,40.08
2023-02-09T18:19:08.281Z,41.05
2023-02-09T18:21:35.342Z,42.80
2023-02-09T18:24:02.526Z,44.80
2023-02-09T18:26:29.562Z,46.95
2023-02-09T18:28:56.580Z,40.53
2023-02-09T18:31:23.676Z,46.42
2023-02-09T18:33:50.813Z,42.70
2023-02-09T18:36:17.880Z,48.35
2023-02-09T18:38:46.341Z,42.28
2023-02-09T18:41:13.761Z,50.05
2023-02-09T18:43:40.850Z,47.42
2023-02-09T18:46:07.962Z,38.80
2023-02-09T18:48:35.011Z,44.80
2023-02-09T18:51:02.026Z,45.65
2023-02-09T18:53:29.038Z,45.55
2023-02-09T18:55:56.033Z,49.22
2023-02-09T18:58:23.150Z,45.22
2023-02-09T19:00:50.252Z,43.08
2023-02-09T19:03:19.972Z,45.40
2023-02-09T19:05:47.985Z,46.33
2023-02-09T19:08:15.725Z,40.05
2023-02-09T19:10:43.601Z,42.58
2023-02-09T19:13:10.892Z,48.22
2023-02-09T19:15:38.975Z,50.83
2023-02-09T19:18:06.153Z,45.38
2023-02-09T19:20:34.218Z,48.72
2023-02-09T19:23:02.448Z,41.97
2023-02-09T19:25:29.962Z,43.72
2023-02-09T19:27:57.396Z,50.60
2023-02-09T19:30:26.276Z,44.97
2023-02-09T19:32:54.394Z,47.55
2023-02-09T19:35:22.763Z,46.25
2023-02-09T19:37:53.434Z,46.58
2023-02-09T19:40:41.107Z,56.90
2023-02-09T19:43:08.122Z,49.35
2023-02-09T19:45:37.973Z,53.35
2023-02-09T19:48:06.175Z,54.67
2023-02-09T19:50:33.666Z,53.47
2023-02-09T19:53:00.705Z,52.15
2023-02-09T19:55:27.720Z,55.15
2023-02-09T19:57:54.808Z,59.97
2023-02-09T20:00:22.212Z,59.38
2023-02-09T20:02:49.567Z,60.13
2023-02-09T20:05:17.052Z,58.47
2023-02-09T20:07:44.215Z,59.08
2023-02-09T20:10:11.463Z,56.45
2023-02-09T20:12:38.443Z,68.57
2023-02-09T20:15:05.579Z,68.63
2023-02-09T20:17:32.713Z,59.85
2023-02-09T20:19:59.735Z,61.88
2023-02-09T20:22:26.837Z,58.63
2023-02-09T20:24:53.954Z,59.53
2023-02-09T20:27:21.243Z,64.57
2023-02-09T20:29:48.238Z,59.50
2023-02-09T20:32:15.295Z,58.40
2023-02-09T20:34:42.540Z,64.55
2023-02-09T20:37:10.368Z,61.85
2023-02-09T20:39:37.380Z,56.30
2023-02-09T20:42:22.976Z,59.85
2023-02-09T20:45:08.894Z,54.75
2023-02-09T20:47:35.924Z,55.47
2023-02-09T20:50:03.120Z,61.42
2023-02-09T20:52:30.806Z,57.97
2023-02-09T20:54:58.174Z,60.92
2023-02-09T20:57:29.377Z,55.97
2023-02-09T21:00:00.258Z,58.28
2023-02-09T21:02:27.634Z,59.03
2023-02-09T21:04:55.997Z,51.22
2023-02-09T21:07:25.004Z,53.65
2023-02-09T21:09:53.983Z,51.60
2023-02-09T21:12:21.120Z,48.90
2023-02-09T21:14:50.546Z,62.13
2023-02-09T21:17:18.462Z,55.08
2023-02-09T21:19:45.463Z,52.35
2023-02-09T21:22:14.171Z,57.38
2023-02-09T21:24:41.705Z,59.38
2023-02-09T21:27:08.874Z,56.30
2023-02-09T21:29:36.421Z,56.97
2023-02-09T21:32:05.565Z,56.10
2023-02-09T21:34:32.974Z,55.60
2023-02-09T21:37:00.006Z,52.03
2023-02-09T21:39:27.077Z,53.22
2023-02-09T21:42:12.752Z,55.97
2023-02-09T21:44:39.768Z,53.35
2023-02-09T21:47:06.985Z,52.15
2023-02-09T21:49:34.273Z,54.78
2023-02-09T21:52:01.378Z,45.72
2023-02-09T21:54:33.092Z,51.50
2023-02-09T21:57:00.777Z,50.78
2023-02-09T21:59:27.982Z,51.60
2023-02-09T22:01:55.023Z,51.50
2023-02-09T22:04:22.084Z,47.60
2023-02-09T22:06:49.238Z,52.50
2023-02-09T22:09:16.625Z,50.22
2023-02-09T22:11:43.662Z,44.33
2023-02-09T22:14:10.743Z,52.10
2023-02-09T22:16:37.818Z,48.72
2023-02-09T22:19:04.867Z,47.45
2023-02-09T22:21:31.897Z,47.20
2023-02-09T22:23:58.909Z,49.78
2023-02-09T22:26:25.935Z,51.13
2023-02-09T22:28:52.978Z,44.90
2023-02-09T22:31:20.902Z,44.30
2023-02-09T22:33:48.462Z,42.60
2023-02-09T22:36:20.302Z,44.17
2023-02-09T22:38:47.352Z,48.50
2023-02-09T22:41:21.988Z,44.58
2023-02-09T22:43:53.767Z,44.08
2023-02-09T22:46:22.300Z,43.30
2023-02-09T22:48:53.551Z,39.40
2023-02-09T22:51:21.042Z,40.03
2023-02-09T22:53:48.059Z,41.97
2023-02-09T22:56:15.072Z,43.95
2023-02-09T22:58:42.197Z,42.25
2023-02-09T23:01:09.943Z,43.05
2023-02-09T23:03:37.506Z,42.67
2023-02-09T23:06:06.016Z,44.22
2023-02-09T23:08:33.173Z,41.03
2023-02-09T23:11:04.174Z,42.53
2023-02-09T23:13:34.800Z,40.40
2023-02-09T23:16:15.047Z,43.85
2023-02-09T23:18:46.681Z,41.40
2023-02-09T23:21:13.761Z,39.40
2023-02-09T23:23:40.797Z,39.20
2023-02-09T23:26:07.898Z,44.50
2023-02-09T23:28:35.068Z,38.92
2023-02-09T23:31:05.918Z,36.88
2023-02-09T23:33:33.689Z,35.67
2023-02-09T23:36:03.739Z,35.38
2023-02-09T23:38:30.950Z,36.08
2023-02-09T23:40:58.009Z,32.53
2023-02-09T23:43:25.928Z,34.85
2023-02-09T23:45:53.439Z,40.72
2023-02-09T23:48:20.609Z,35.65
2023-02-09T23:50:47.724Z,38.10
2023-02-09T23:53:14.814Z,39.78
2023-02-09T23:55:42.111Z,39.58
2023-02-09T23:58:09.218Z,39.25
